Time;durP1;ratioP1;P1;durP2;ratioP2;P2;SDS_P1;SDS_P2;PMS_P1;PMS_P2;Temp;Humidity;BMP_temperature;BMP_pressure;BME280_temperature;BME280_humidity;BME280_pressure;Samples;Min_cycle;Max_cycle;Signal;HPM_P1;HPM_P2
2023/08/16 00:01:50;;;;;;;6.47;2.97;;;;;;;19.34;73.48;102023.34;7389991;19;20022;-61
2023/08/16 00:04:18;;;;;;;7.82;3.17;;;;;;;19.31;73.11;102018.28;7389403;19;20095;-60
2023/08/16 00:06:45;;;;;;;8.43;3.28;;;;;;;19.32;73.39;102022.66;7389444;19;20551;-60
2023/08/16 00:09:15;;;;;;;8.43;3.22;;;;;;;19.10;73.83;102031.78;7390871;19;20015;-60
2023/08/16 00:11:42;;;;;;;5.47;3.10;;;;;;;19.12;74.10;102028.97;7390359;19;20047;-60
2023/08/16 00:14:10;;;;;;;8.70;3.20;;;;;;;19.15;73.50;102026.00;7388756;19;20022;-60
2023/08/16 00:16:37;;;;;;;9.15;3.35;;;;;;;19.18;73.19;102033.78;7387052;19;20513;-60
2023/08/16 00:19:05;;;;;;;6.88;3.00;;;;;;;18.93;74.26;102033.31;7388122;19;20089;-58
2023/08/16 00:21:32;;;;;;;6.90;3.30;;;;;;;18.69;75.23;102028.22;7389563;19;20047;-60
2023/08/16 00:23:59;;;;;;;7.78;2.90;;;;;;;18.65;75.65;102036.69;7389512;19;20011;-60
2023/08/16 00:26:27;;;;;;;10.05;3.00;;;;;;;18.68;75.72;102037.25;7389757;19;20019;-60
2023/08/16 00:28:55;;;;;;;5.80;2.80;;;;;;;18.92;74.82;102026.22;7389135;19;20010;-59
2023/08/16 00:31:23;;;;;;;8.00;3.00;;;;;;;19.05;74.13;102030.50;7388876;19;20088;-59
2023/08/16 00:33:50;;;;;;;7.78;2.97;;;;;;;19.11;74.00;102035.31;7388980;19;20018;-59
2023/08/16 00:36:18;;;;;;;5.40;2.72;;;;;;;19.14;73.78;102040.41;7388548;19;20014;-59
2023/08/16 00:38:45;;;;;;;6.65;2.95;;;;;;;19.12;73.73;102040.56;7389612;19;20025;-59
2023/08/16 00:41:13;;;;;;;7.78;2.85;;;;;;;18.82;74.78;102037.94;7389051;19;20044;-60
2023/08/16 00:43:40;;;;;;;7.97;3.20;;;;;;;18.63;75.66;102044.03;7388351;19;20027;-59
2023/08/16 00:46:11;;;;;;;8.82;3.40;;;;;;;18.55;76.08;102038.47;7386206;19;20078;-60
2023/08/16 00:48:41;;;;;;;7.65;3.22;;;;;;;18.47;76.43;102044.50;7389014;19;20510;-60
2023/08/16 00:51:09;;;;;;;8.43;3.25;;;;;;;18.75;75.48;102045.66;7388913;19;20018;-59
2023/08/16 00:53:39;;;;;;;7.07;3.05;;;;;;;18.94;74.66;102036.84;7392403;19;20023;-60
2023/08/16 00:56:06;;;;;;;8.48;3.17;;;;;;;18.95;74.58;102042.06;7393974;19;20019;-59
2023/08/16 00:58:34;;;;;;;7.38;3.15;;;;;;;18.95;74.59;102050.09;7396583;19;20022;-59
2023/08/16 01:01:02;;;;;;;6.28;3.30;;;;;;;18.93;74.29;102053.94;7395064;19;20546;-59
2023/08/16 01:03:29;;;;;;;9.32;3.42;;;;;;;18.89;74.42;102049.81;7396050;19;20098;-59
2023/08/16 01:05:57;;;;;;;7.03;3.35;;;;;;;18.90;74.45;102051.53;7395471;19;20014;-59
2023/08/16 01:08:24;;;;;;;7.40;2.78;;;;;;;18.87;74.22;102046.41;7397033;19;20022;-59
2023/08/16 01:11:00;;;;;;;7.28;3.08;;;;;;;18.95;73.98;102043.91;7393380;19;20019;-59
2023/08/16 01:13:49;;;;;;;7.10;2.63;;;;;;;18.95;74.05;102041.22;7395558;19;20039;-59
2023/08/16 01:16:20;;;;;;;7.10;2.85;;;;;;;18.86;74.29;102055.47;7394522;19;20040;-59
2023/08/16 01:18:48;;;;;;;8.73;3.22;;;;;;;18.59;75.32;102045.28;7393900;19;20770;-59
2023/08/16 01:21:16;;;;;;;9.48;3.20;;;;;;;18.69;75.26;102048.84;7395589;19;20472;-59
2023/08/16 01:24:37;;;;;;;7.88;3.28;;;;;;;18.89;73.86;102058.72;7395307;19;20014;-59
2023/08/16 01:27:05;;;;;;;9.00;3.60;;;;;;;18.59;75.39;102058.69;7392624;19;20558;-60
2023/08/16 01:29:33;;;;;;;7.45;3.25;;;;;;;18.58;75.07;102057.81;7394098;19;20045;-61
2023/08/16 01:32:00;;;;;;;8.45;3.30;;;;;;;18.34;76.05;102062.63;7394680;19;20035;-60
2023/08/16 01:34:28;;;;;;;9.23;3.03;;;;;;;18.29;76.48;102065.72;7394015;19;20047;-60
2023/08/16 01:36:55;;;;;;;7.55;3.25;;;;;;;18.46;75.78;102064.25;7392539;19;20051;-60
2023/08/16 01:39:23;;;;;;;6.63;3.20;;;;;;;18.40;76.41;102064.81;7392745;19;20018;-60
2023/08/16 01:41:55;;;;;;;8.98;3.17;;;;;;;18.61;75.35;102059.41;7394697;19;20039;-60
2023/08/16 01:44:24;;;;;;;8.48;3.20;;;;;;;18.67;75.10;102058.88;7395268;19;20025;-61
2023/08/16 01:46:53;;;;;;;5.60;2.70;;;;;;;18.64;74.94;102059.13;7393856;19;20035;-60
2023/08/16 01:49:22;;;;;;;9.00;3.17;;;;;;;18.68;74.40;102053.34;7392581;19;20035;-60
2023/08/16 01:51:50;;;;;;;7.50;3.40;;;;;;;18.46;75.56;102043.63;7395536;19;20037;-60
2023/08/16 01:54:17;;;;;;;6.25;2.90;;;;;;;18.56;75.33;102049.06;7394083;19;20019;-60
2023/08/16 01:56:45;;;;;;;6.47;2.88;;;;;;;18.43;75.30;102046.59;7392365;19;20018;-60
2023/08/16 01:59:12;;;;;;;5.82;2.78;;;;;;;18.40;75.71;102046.03;7393685;19;20520;-60
2023/08/16 02:01:39;;;;;;;7.47;2.70;;;;;;;18.55;74.86;102042.00;7394277;19;20032;-60
2023/08/16 02:04:07;;;;;;;6.72;2.80;;;;;;;18.61;74.47;102040.59;7393678;19;20086;-60
2023/08/16 02:06:34;;;;;;;7.50;2.67;;;;;;;18.61;74.15;102049.50;7391997;19;20014;-60
2023/08/16 02:09:01;;;;;;;6.80;2.85;;;;;;;18.59;74.08;102056.00;7394251;19;20019;-60
2023/08/16 02:11:30;;;;;;;6.13;3.05;;;;;;;18.58;73.53;102060.50;7391879;19;20025;-60
2023/08/16 02:13:57;;;;;;;6.80;2.75;;;;;;;18.24;74.86;102058.06;7393557;19;20014;-60
2023/08/16 02:16:25;;;;;;;7.40;2.80;;;;;;;18.22;75.36;102061.84;7391453;19;20023;-60
2023/08/16 02:18:52;;;;;;;6.32;2.70;;;;;;;18.35;74.89;102061.63;7393513;19;20025;-60
2023/08/16 02:21:20;;;;;;;6.15;3.08;;;;;;;18.34;74.78;102059.94;7391935;19;20023;-59
2023/08/16 02:23:47;;;;;;;6.65;3.00;;;;;;;18.40;74.62;102065.66;7392575;19;20014;-59
2023/08/16 02:26:14;;;;;;;5.95;3.03;;;;;;;18.43;74.07;102064.50;7392645;19;20042;-60
2023/08/16 02:28:42;;;;;;;8.27;3.00;;;;;;;18.42;74.36;102066.34;7392546;19;20078;-60
2023/08/16 02:31:09;;;;;;;9.45;3.10;;;;;;;18.36;74.39;102066.03;7393860;19;20026;-60
2023/08/16 02:33:37;;;;;;;7.10;2.55;;;;;;;18.32;74.75;102065.47;7393682;19;20016;-59
2023/08/16 02:36:04;;;;;;;5.93;2.67;;;;;;;18.31;74.88;102061.06;7392472;19;20035;-60
2023/08/16 02:38:31;;;;;;;7.68;2.65;;;;;;;18.36;74.42;102066.03;7393051;19;20019;-59
2023/08/16 02:40:59;;;;;;;8.52;2.80;;;;;;;18.39;74.53;102063.06;7392014;19;20018;-60
2023/08/16 02:43:26;;;;;;;7.25;3.10;;;;;;;18.38;74.25;102064.06;7392017;19;20048;-59
2023/08/16 02:45:54;;;;;;;6.68;2.80;;;;;;;18.26;74.75;102061.44;7390393;19;20089;-59
2023/08/16 02:48:21;;;;;;;8.20;2.90;;;;;;;18.28;75.00;102061.34;7391356;19;20018;-60
2023/08/16 02:50:49;;;;;;;9.38;3.00;;;;;;;18.30;74.50;102062.03;7389421;19;20014;-59
2023/08/16 02:53:16;;;;;;;5.55;2.67;;;;;;;18.25;74.74;102062.44;7396790;19;20390;-60
2023/08/16 02:55:43;;;;;;;7.30;2.67;;;;;;;18.17;74.75;102072.97;7390491;19;20018;-59
2023/08/16 02:58:11;;;;;;;6.70;2.47;;;;;;;17.99;75.47;102079.88;7393430;19;20018;-59
2023/08/16 03:00:38;;;;;;;7.28;2.72;;;;;;;18.11;75.10;102072.63;7391428;19;20018;-59
2023/08/16 03:03:06;;;;;;;9.55;2.45;;;;;;;18.19;74.80;102076.34;7392803;19;20026;-60
2023/08/16 03:05:33;;;;;;;7.32;2.38;;;;;;;18.15;74.19;102063.34;7386308;19;20876;-58
2023/08/16 03:08:01;;;;;;;5.15;2.50;;;;;;;18.18;74.35;102071.97;7392600;19;20480;-59
2023/08/16 03:10:28;;;;;;;10.27;3.15;;;;;;;18.14;74.05;102078.59;7392500;19;20019;-60
2023/08/16 03:12:56;;;;;;;7.80;2.90;;;;;;;18.05;74.41;102084.75;7391873;19;20018;-64
2023/08/16 03:15:23;;;;;;;6.35;2.63;;;;;;;18.10;74.04;102090.56;7391977;19;20028;-60
2023/08/16 03:17:51;;;;;;;7.72;2.75;;;;;;;17.72;75.57;102089.22;7387561;19;20025;-60
2023/08/16 03:20:18;;;;;;;6.72;2.63;;;;;;;17.77;75.67;102083.50;7391692;19;20011;-60
2023/08/16 03:22:45;;;;;;;7.93;2.60;;;;;;;17.87;74.67;102087.13;7392089;19;20096;-61
2023/08/16 03:25:13;;;;;;;8.00;2.88;;;;;;;17.96;74.42;102101.56;7391702;19;20093;-61
2023/08/16 03:27:40;;;;;;;8.43;2.78;;;;;;;17.98;74.19;102096.94;7391258;19;20040;-61
2023/08/16 03:30:09;;;;;;;5.68;2.67;;;;;;;17.97;74.09;102103.28;7392207;19;20018;-67
2023/08/16 03:32:36;;;;;;;5.63;2.63;;;;;;;17.96;74.10;102104.25;7392111;19;20039;-65
2023/08/16 03:35:04;;;;;;;5.68;2.72;;;;;;;17.83;74.26;102109.78;7391135;19;20499;-67
2023/08/16 03:37:31;;;;;;;7.07;2.78;;;;;;;17.67;75.47;102107.50;7388236;19;20564;-65
2023/08/16 03:39:59;;;;;;;8.18;2.65;;;;;;;17.81;74.98;102114.41;7391366;19;20014;-66
2023/08/16 03:42:26;;;;;;;8.05;2.53;;;;;;;17.87;74.87;102113.06;7391178;19;20018;-65
2023/08/16 03:44:53;;;;;;;6.68;2.40;;;;;;;17.85;74.46;102115.88;7391855;19;20048;-59
2023/08/16 03:47:21;;;;;;;6.72;2.78;;;;;;;17.86;74.69;102108.66;7388959;19;20014;-67
2023/08/16 03:49:53;;;;;;;6.05;2.47;;;;;;;17.81;74.75;102116.25;7391987;19;20022;-67
2023/08/16 03:52:20;;;;;;;6.85;2.55;;;;;;;17.84;74.70;102121.38;7392563;19;20043;-69
2023/08/16 03:54:47;;;;;;;4.57;2.67;;;;;;;17.73;74.64;102124.88;7389880;19;20510;-65
2023/08/16 03:57:15;;;;;;;6.47;2.90;;;;;;;17.56;75.68;102126.28;7388430;19;20498;-65
2023/08/16 03:59:42;;;;;;;9.05;3.10;;;;;;;17.40;76.56;102125.81;7389685;19;20039;-61
2023/08/16 04:02:09;;;;;;;10.65;2.88;;;;;;;17.60;76.03;102127.72;7390912;19;20023;-59
2023/08/16 04:04:37;;;;;;;9.57;3.40;;;;;;;17.55;76.36;102127.22;7390716;19;20511;-59
2023/08/16 04:07:04;;;;;;;7.43;2.88;;;;;;;17.69;75.87;102136.84;7387306;19;20015;-61
2023/08/16 04:09:31;;;;;;;9.05;3.38;;;;;;;17.70;75.52;102133.16;7390560;19;20081;-63
2023/08/16 04:11:59;;;;;;;8.07;3.17;;;;;;;17.76;75.85;102130.03;7390456;19;20023;-63
2023/08/16 04:14:26;;;;;;;7.40;2.75;;;;;;;17.85;75.27;102128.41;7390635;19;20015;-66
2023/08/16 04:16:54;;;;;;;9.60;3.05;;;;;;;17.87;75.53;102126.47;7387976;19;20010;-63
2023/08/16 04:19:21;;;;;;;7.40;3.10;;;;;;;17.88;75.08;102136.22;7389194;19;20035;-64
2023/08/16 04:21:48;;;;;;;8.10;2.92;;;;;;;17.86;74.67;102136.34;7390324;19;20018;-64
2023/08/16 04:24:16;;;;;;;5.25;2.80;;;;;;;17.82;74.14;102131.34;7390164;19;20030;-58
2023/08/16 04:26:43;;;;;;;4.88;2.60;;;;;;;17.77;74.04;102129.91;7387157;19;20078;-64
2023/08/16 04:29:11;;;;;;;7.68;3.20;;;;;;;17.53;74.79;102143.44;7392029;19;20014;-61
2023/08/16 04:31:38;;;;;;;8.40;3.10;;;;;;;17.27;76.24;102142.84;7397332;19;20023;-64
2023/08/16 04:34:07;;;;;;;5.93;2.97;;;;;;;17.19;76.85;102153.34;7398075;19;20504;-61
2023/08/16 04:36:34;;;;;;;8.27;3.38;;;;;;;17.14;77.23;102149.34;7394489;19;20047;-60
2023/08/16 04:39:02;;;;;;;6.72;2.70;;;;;;;17.44;76.36;102154.91;7396125;19;20528;-61
2023/08/16 04:41:29;;;;;;;5.97;2.70;;;;;;;17.62;75.76;102141.00;7397683;19;20010;-61
2023/08/16 04:43:57;;;;;;;6.93;2.83;;;;;;;17.74;75.25;102151.59;7397522;19;20022;-60
2023/08/16 04:46:24;;;;;;;7.30;2.85;;;;;;;17.81;74.89;102165.34;7394899;19;20018;-61
2023/08/16 04:48:53;;;;;;;10.27;2.92;;;;;;;17.88;74.51;102163.00;7395705;19;20022;-61
2023/08/16 04:51:20;;;;;;;5.82;2.50;;;;;;;17.87;74.46;102161.31;7396449;19;20051;-61
2023/08/16 04:53:48;;;;;;;6.75;3.17;;;;;;;17.84;74.64;102159.72;7402149;19;20035;-59
2023/08/16 04:56:15;;;;;;;5.40;2.90;;;;;;;17.84;74.52;102162.41;7395293;19;20022;-61
2023/08/16 04:58:42;;;;;;;7.68;3.65;;;;;;;17.82;74.67;102160.81;7394138;19;20464;-59
2023/08/16 05:01:10;;;;;;;7.32;3.13;;;;;;;17.82;74.69;102160.81;7396535;19;20093;-60
2023/08/16 05:03:38;;;;;;;10.40;3.55;;;;;;;17.84;74.67;102169.59;7396623;19;20018;-60
2023/08/16 05:06:05;;;;;;;9.40;3.47;;;;;;;17.62;75.83;102168.63;7393159;19;20090;-59
2023/08/16 05:08:32;;;;;;;8.45;3.22;;;;;;;17.76;75.96;102171.09;7396531;19;20041;-59
2023/08/16 05:11:00;;;;;;;8.68;3.63;;;;;;;17.61;76.27;102174.97;7396123;19;20573;-60
2023/08/16 05:13:27;;;;;;;9.80;3.90;;;;;;;17.59;76.43;102186.78;7396408;19;20059;-60
2023/08/16 05:15:55;;;;;;;8.65;3.78;;;;;;;17.73;76.24;102182.00;7394954;19;20015;-60
2023/08/16 05:18:22;;;;;;;8.18;3.17;;;;;;;17.96;75.63;102187.34;7394022;19;20512;-60
2023/08/16 05:20:49;;;;;;;8.32;3.38;;;;;;;18.06;75.26;102190.16;7394244;19;20603;-60
2023/08/16 05:23:17;;;;;;;9.50;4.10;;;;;;;18.03;75.74;102201.97;7395822;19;20364;-59
2023/08/16 05:25:44;;;;;;;7.45;3.55;;;;;;;18.01;75.59;102194.06;7392929;19;20019;-60
2023/08/16 05:28:11;;;;;;;8.93;3.78;;;;;;;18.01;75.89;102190.53;7395980;19;20010;-59
2023/08/16 05:30:38;;;;;;;8.43;3.65;;;;;;;18.11;75.68;102206.69;7394282;19;20028;-59
2023/08/16 05:33:06;;;;;;;8.95;3.45;;;;;;;18.18;75.14;102202.53;7395615;19;20031;-59
2023/08/16 05:35:33;;;;;;;8.10;3.20;;;;;;;18.18;75.15;102207.88;7392810;19;20014;-59
2023/08/16 05:38:05;;;;;;;7.57;3.95;;;;;;;17.91;76.31;102206.50;7393682;19;20014;-59
2023/08/16 05:40:32;;;;;;;7.15;3.58;;;;;;;17.80;77.32;102206.53;7393555;19;20019;-59
2023/08/16 05:43:00;;;;;;;10.93;3.80;;;;;;;17.95;77.01;102201.75;7395394;19;20044;-59
2023/08/16 05:45:29;;;;;;;7.80;3.50;;;;;;;18.03;76.52;102202.81;7394019;19;20021;-59
2023/08/16 05:48:00;;;;;;;10.43;3.60;;;;;;;18.16;76.31;102204.47;7395254;19;20033;-59
2023/08/16 05:50:28;;;;;;;7.82;3.92;;;;;;;18.17;76.16;102216.94;7394058;19;20019;-60
2023/08/16 05:52:55;;;;;;;9.43;3.95;;;;;;;17.91;77.25;102214.53;7396703;19;20030;-59
2023/08/16 05:55:22;;;;;;;12.93;4.90;;;;;;;17.81;77.83;102210.06;7394282;19;20070;-61
2023/08/16 05:57:50;;;;;;;10.98;4.40;;;;;;;17.84;77.88;102215.16;7392044;19;20048;-61
2023/08/16 06:00:21;;;;;;;10.45;4.28;;;;;;;18.06;77.37;102209.75;7394944;19;20039;-62
2023/08/16 06:02:49;;;;;;;10.88;4.85;;;;;;;18.06;77.39;102217.81;7394613;19;20038;-62
2023/08/16 06:05:16;;;;;;;10.75;4.63;;;;;;;18.21;77.26;102218.38;7394386;19;20018;-62
2023/08/16 06:07:43;;;;;;;11.20;4.95;;;;;;;18.14;77.22;102222.53;7394231;19;20043;-62
2023/08/16 06:10:11;;;;;;;12.00;4.50;;;;;;;18.12;77.58;102217.28;7395323;19;20056;-59
2023/08/16 06:12:38;;;;;;;11.88;4.45;;;;;;;18.31;76.71;102229.16;7394459;19;20029;-58
2023/08/16 06:15:11;;;;;;;13.25;4.47;;;;;;;18.30;76.89;102235.53;7394287;19;20038;-58
2023/08/16 06:17:39;;;;;;;7.93;3.90;;;;;;;18.34;76.84;102239.66;7392957;19;20043;-58
2023/08/16 06:20:07;;;;;;;9.52;4.07;;;;;;;18.45;76.10;102239.63;7393159;19;20019;-58
2023/08/16 06:22:37;;;;;;;8.55;3.53;;;;;;;18.55;75.63;102235.19;7392148;19;20370;-58
2023/08/16 06:25:09;;;;;;;13.90;4.05;;;;;;;18.61;75.60;102234.66;7393713;19;20019;-58
2023/08/16 06:27:36;;;;;;;15.88;4.13;;;;;;;18.68;74.99;102241.22;7393099;19;20054;-58
2023/08/16 06:30:04;;;;;;;13.68;4.00;;;;;;;18.77;74.92;102246.81;7393779;19;20019;-57
2023/08/16 06:32:31;;;;;;;9.35;2.78;;;;;;;18.77;74.50;102246.81;7394154;19;20006;-58
2023/08/16 06:34:59;;;;;;;11.30;3.20;;;;;;;18.79;74.90;102244.88;7392119;19;20491;-59
2023/08/16 06:37:26;;;;;;;8.25;2.67;;;;;;;18.75;75.02;102241.59;7391159;19;20022;-57
2023/08/16 06:39:53;;;;;;;7.47;2.58;;;;;;;18.79;75.02;102247.56;7392849;19;20043;-58
2023/08/16 06:42:21;;;;;;;9.00;2.70;;;;;;;18.69;75.05;102242.91;7394012;19;20603;-58
2023/08/16 06:44:48;;;;;;;8.77;2.70;;;;;;;18.64;75.61;102241.59;7393517;19;20039;-58
2023/08/16 06:47:16;;;;;;;11.50;2.80;;;;;;;18.64;75.71;102249.66;7391375;19;20027;-57
2023/08/16 06:49:43;;;;;;;6.50;2.30;;;;;;;18.68;75.50;102243.06;7391491;19;20574;-59
2023/08/16 06:52:11;;;;;;;7.88;2.40;;;;;;;18.79;75.24;102244.88;7393755;19;20032;-58
2023/08/16 06:54:38;;;;;;;8.82;2.50;;;;;;;18.83;75.28;102252.53;7392948;19;20447;-59
2023/08/16 06:57:06;;;;;;;11.18;3.17;;;;;;;18.89;75.20;102253.84;7390802;19;20018;-59
2023/08/16 06:59:33;;;;;;;7.97;2.90;;;;;;;18.90;75.09;102252.84;7392629;19;20036;-63
2023/08/16 07:02:00;;;;;;;6.63;2.60;;;;;;;19.02;74.56;102259.00;7392775;19;20022;-61
2023/08/16 07:04:28;;;;;;;10.52;2.30;;;;;;;19.05;74.03;102256.91;7392874;19;20014;-59
2023/08/16 07:06:55;;;;;;;9.40;2.42;;;;;;;19.19;73.99;102251.22;7389764;19;20011;-60
2023/08/16 07:09:24;;;;;;;7.28;2.33;;;;;;;19.29;73.32;102253.09;7392865;19;20018;-61
2023/08/16 07:11:51;;;;;;;8.43;2.40;;;;;;;19.35;73.58;102249.88;7392601;19;20011;-60
2023/08/16 07:14:18;;;;;;;7.18;1.90;;;;;;;19.37;73.10;102253.28;7392575;19;20036;-60
2023/08/16 07:16:46;;;;;;;6.82;2.20;;;;;;;19.40;73.29;102261.91;7390060;19;20346;-60
2023/08/16 07:19:13;;;;;;;8.63;1.92;;;;;;;19.52;72.47;102261.84;7390817;19;20025;-59
2023/08/16 07:21:41;;;;;;;9.65;2.00;;;;;;;19.57;72.21;102268.50;7392065;19;20019;-60
2023/08/16 07:24:08;;;;;;;8.43;1.90;;;;;;;19.63;72.09;102268.00;7389971;19;20505;-60
2023/08/16 07:26:35;;;;;;;6.65;1.90;;;;;;;19.74;72.03;102268.91;7390193;19;20022;-59
2023/08/16 07:29:03;;;;;;;8.57;1.90;;;;;;;19.81;71.04;102270.91;7391511;19;20222;-60
2023/08/16 07:31:30;;;;;;;4.57;1.50;;;;;;;19.89;70.66;102275.59;7391677;19;20109;-59
2023/08/16 07:33:57;;;;;;;5.88;1.52;;;;;;;19.95;70.67;102273.19;7391395;19;20048;-59
2023/08/16 07:36:25;;;;;;;7.30;1.63;;;;;;;20.04;70.84;102276.06;7390386;19;20023;-59
2023/08/16 07:38:52;;;;;;;7.55;1.67;;;;;;;20.23;70.33;102289.56;7390870;19;20551;-61
2023/08/16 07:41:20;;;;;;;6.72;1.60;;;;;;;20.30;69.60;102288.03;7391762;19;20029;-59
2023/08/16 07:43:47;;;;;;;7.38;1.67;;;;;;;20.36;69.33;102279.38;7391163;19;20015;-59
2023/08/16 07:46:14;;;;;;;7.95;2.20;;;;;;;20.31;69.19;102281.66;7389635;19;20014;-59
2023/08/16 07:48:42;;;;;;;5.28;1.30;;;;;;;20.29;69.28;102285.47;7391137;19;20018;-60
2023/08/16 07:51:10;;;;;;;8.60;2.15;;;;;;;20.26;69.64;102285.72;7389824;19;20022;-61
2023/08/16 07:53:37;;;;;;;3.67;1.60;;;;;;;20.18;69.97;102289.09;7395630;19;20011;-60
2023/08/16 07:56:05;;;;;;;7.13;1.90;;;;;;;20.13;70.32;102283.31;7390019;19;20028;-60
2023/08/16 07:58:32;;;;;;;5.05;1.58;;;;;;;20.09;69.68;102289.94;7388322;19;20127;-60
2023/08/16 08:01:00;;;;;;;5.20;1.40;;;;;;;20.01;69.70;102284.41;7391005;19;20017;-61
2023/08/16 08:03:27;;;;;;;6.05;1.50;;;;;;;20.00;69.79;102283.56;7391871;19;20031;-60
2023/08/16 08:06:02;;;;;;;7.20;1.60;;;;;;;19.97;70.14;102289.22;7396147;19;20022;-60
2023/08/16 08:08:29;;;;;;;7.20;1.50;;;;;;;19.93;69.83;102293.16;7398776;19;20023;-60
2023/08/16 08:10:57;;;;;;;6.05;1.65;;;;;;;19.93;70.31;102309.31;7398657;19;20035;-61
2023/08/16 08:13:25;;;;;;;5.53;1.50;;;;;;;19.95;70.14;102294.72;7398723;19;20399;-61
2023/08/16 08:15:53;;;;;;;4.13;1.45;;;;;;;20.04;69.97;102306.50;7397008;19;20010;-61
2023/08/16 08:18:21;;;;;;;6.45;1.88;;;;;;;20.19;69.37;102301.59;7395744;19;20082;-60
2023/08/16 08:20:48;;;;;;;5.93;1.45;;;;;;;20.39;69.06;102300.63;7398379;19;20543;-61
2023/08/16 08:23:15;;;;;;;7.43;1.65;;;;;;;20.48;68.38;102295.41;7397941;19;20018;-61
2023/08/16 08:25:44;;;;;;;5.18;1.50;;;;;;;20.65;68.16;102308.22;7396242;19;20018;-61
2023/08/16 08:28:11;;;;;;;5.60;1.60;;;;;;;20.67;67.14;102301.66;7397650;19;20022;-61
2023/08/16 08:30:41;;;;;;;6.88;1.80;;;;;;;20.72;66.64;102303.09;7397831;19;20015;-61
2023/08/16 08:33:09;;;;;;;5.65;1.92;;;;;;;20.74;67.02;102301.97;7396237;19;20019;-61
2023/08/16 08:35:37;;;;;;;7.97;1.60;;;;;;;20.84;66.67;102310.91;7396655;19;20039;-61
2023/08/16 08:38:05;;;;;;;7.68;1.77;;;;;;;20.94;66.58;102313.56;7396907;19;20039;-61
2023/08/16 08:40:32;;;;;;;7.45;1.80;;;;;;;20.97;67.01;102309.75;7397726;19;20014;-61
2023/08/16 08:43:01;;;;;;;6.13;1.90;;;;;;;20.99;66.53;102311.31;7397004;19;20035;-61
2023/08/16 08:45:30;;;;;;;4.30;1.52;;;;;;;20.97;66.65;102310.59;7395983;19;20043;-61
2023/08/16 08:47:58;;;;;;;4.65;1.50;;;;;;;21.07;66.19;102313.31;7397512;19;20036;-60
2023/08/16 08:50:29;;;;;;;8.20;1.90;;;;;;;21.08;66.42;102313.16;7397957;19;20074;-60
2023/08/16 08:52:57;;;;;;;5.47;1.65;;;;;;;21.06;65.65;102311.56;7399733;19;20378;-61
2023/08/16 08:55:29;;;;;;;4.85;1.55;;;;;;;21.11;65.45;102309.31;7396300;19;20106;-61
2023/08/16 08:58:01;;;;;;;5.40;1.80;;;;;;;21.17;65.42;102314.97;7395046;19;20094;-59
2023/08/16 09:00:34;;;;;;;3.88;1.50;;;;;;;21.15;65.29;102316.97;7396753;19;20044;-59
2023/08/16 09:03:07;;;;;;;11.32;4.28;;;;;;;21.18;64.80;102316.69;7396731;19;20101;-59
2023/08/16 09:08:03;;;;;;;5.30;2.70;;;;;;;21.17;65.24;102308.72;7401601;19;20014;-59
2023/08/16 09:10:41;;;;;;;6.25;1.80;;;;;;;21.34;64.94;102323.34;7395940;19;20055;-60
2023/08/16 09:13:10;;;;;;;8.13;1.63;;;;;;;21.28;65.30;102324.75;7396795;19;20014;-60
2023/08/16 09:15:39;;;;;;;5.05;1.65;;;;;;;21.17;64.95;102331.13;7395423;19;20033;-60
2023/08/16 09:18:07;;;;;;;7.90;1.55;;;;;;;21.00;65.36;102337.25;7396276;19;20019;-60
2023/08/16 09:20:35;;;;;;;5.32;1.40;;;;;;;20.94;65.31;102333.28;7396384;19;20019;-59
2023/08/16 09:23:03;;;;;;;7.13;1.88;;;;;;;20.98;65.07;102341.94;7396668;19;20014;-59
2023/08/16 09:25:31;;;;;;;6.35;2.08;;;;;;;20.99;65.22;102340.09;7393993;19;20063;-60
2023/08/16 09:28:01;;;;;;;6.47;1.50;;;;;;;20.90;65.50;102339.94;7395829;19;20021;-60
2023/08/16 09:30:29;;;;;;;6.43;1.50;;;;;;;20.93;65.93;102336.13;7395739;19;20047;-59
2023/08/16 09:32:56;;;;;;;9.70;2.25;;;;;;;20.98;66.35;102336.53;7395632;19;20026;-59
2023/08/16 09:35:28;;;;;;;6.47;2.00;;;;;;;21.08;66.17;102329.31;7395470;19;20024;-59
2023/08/16 09:37:57;;;;;;;4.53;1.58;;;;;;;21.08;65.97;102332.00;7395211;19;20018;-59
2023/08/16 09:40:24;;;;;;;7.43;1.80;;;;;;;21.09;65.93;102339.09;7394571;19;20015;-59
2023/08/16 09:42:58;;;;;;;4.43;1.80;;;;;;;21.11;66.29;102336.25;7395220;19;20431;-61
2023/08/16 09:45:33;;;;;;;6.82;1.70;;;;;;;21.01;66.43;102333.56;7394384;19;20011;-62
2023/08/16 09:48:01;;;;;;;5.32;1.40;;;;;;;20.94;66.49;102327.03;7396208;19;20051;-61
2023/08/16 09:50:35;;;;;;;6.97;1.67;;;;;;;20.99;66.40;102330.19;7392870;19;20020;-62
2023/08/16 09:53:18;;;;;;;4.63;1.58;;;;;;;20.94;66.07;102324.34;7398677;19;20014;-62
2023/08/16 09:56:02;;;;;;;3.47;1.58;;;;;;;21.01;66.06;102327.34;7392166;19;20010;-62
2023/08/16 09:58:50;;;;;;;5.07;1.58;;;;;;;21.06;66.00;102320.53;7393328;19;20085;-61
2023/08/16 10:01:18;;;;;;;5.65;1.75;;;;;;;21.22;65.67;102325.34;7394594;19;20018;-62
2023/08/16 10:03:53;;;;;;;6.15;1.60;;;;;;;21.39;65.75;102318.38;7393982;19;20011;-61
2023/08/16 10:06:24;;;;;;;5.35;1.60;;;;;;;21.32;64.93;102318.06;7393122;19;20035;-61
2023/08/16 10:09:07;;;;;;;6.82;1.50;;;;;;;21.29;64.94;102317.50;7394524;19;20021;-62
2023/08/16 10:11:36;;;;;;;4.75;1.40;;;;;;;21.33;64.91;102319.81;7393781;19;20007;-62
2023/08/16 10:14:08;;;;;;;6.13;1.60;;;;;;;21.38;65.29;102325.63;7393629;19;20507;-60
2023/08/16 10:16:36;;;;;;;4.60;1.55;;;;;;;21.45;65.08;102316.97;7390737;19;20032;-62
2023/08/16 10:19:07;;;;;;;6.38;1.65;;;;;;;21.47;65.29;102323.03;7392868;19;20055;-61
2023/08/16 10:21:39;;;;;;;5.72;1.60;;;;;;;21.49;65.10;102323.75;7393855;19;20018;-60
2023/08/16 10:24:09;;;;;;;5.00;1.63;;;;;;;21.51;64.60;102321.75;7394316;19;20022;-60
2023/08/16 10:26:41;;;;;;;5.22;1.38;;;;;;;21.42;65.28;102327.03;7389070;19;20040;-64
2023/08/16 10:29:13;;;;;;;3.83;1.60;;;;;;;21.40;64.79;102325.44;7393819;19;20018;-60
2023/08/16 10:31:46;;;;;;;5.28;1.88;;;;;;;21.40;65.52;102326.28;7393099;19;20039;-60
2023/08/16 10:34:15;;;;;;;4.55;1.40;;;;;;;21.36;64.99;102329.44;7393710;19;20047;-60
2023/08/16 10:36:43;;;;;;;7.93;1.92;;;;;;;21.32;65.69;102330.69;7390070;19;20550;-60
2023/08/16 10:39:21;;;;;;;4.40;1.52;;;;;;;21.36;66.32;102330.28;7392133;19;20014;-60
2023/08/16 10:41:53;;;;;;;5.68;1.60;;;;;;;21.24;66.56;102339.50;7392691;19;20026;-60
2023/08/16 10:44:24;;;;;;;5.40;1.50;;;;;;;21.21;66.72;102330.84;7392674;19;20081;-60
2023/08/16 10:46:52;;;;;;;4.03;1.25;;;;;;;21.20;66.23;102337.25;7391289;19;20026;-61
2023/08/16 10:49:19;;;;;;;6.85;1.75;;;;;;;21.26;66.78;102332.13;7392805;19;20799;-60
2023/08/16 10:51:52;;;;;;;6.25;1.60;;;;;;;21.26;66.85;102333.97;7393653;19;20007;-60
2023/08/16 10:54:32;;;;;;;4.32;1.50;;;;;;;21.24;65.90;102327.88;7392296;19;20034;-60
2023/08/16 10:57:05;;;;;;;4.45;1.70;;;;;;;21.21;65.94;102328.16;7389558;19;20043;-60
2023/08/16 10:59:41;;;;;;;6.40;1.60;;;;;;;21.35;65.41;102327.75;7391999;19;20145;-60
2023/08/16 11:02:11;;;;;;;6.53;1.50;;;;;;;21.45;65.24;102331.28;7392052;19;20043;-60
2023/08/16 11:04:39;;;;;;;5.70;1.85;;;;;;;21.55;65.06;102320.44;7392624;19;20499;-60
2023/08/16 11:07:08;;;;;;;8.25;2.00;;;;;;;21.54;65.39;102325.00;7390402;19;20010;-60
2023/08/16 11:09:36;;;;;;;6.18;1.50;;;;;;;21.48;64.85;102328.25;7392118;19;20036;-60
2023/08/16 11:12:04;;;;;;;8.43;2.08;;;;;;;21.47;64.81;102325.72;7392107;19;20018;-60
2023/08/16 11:14:32;;;;;;;7.20;1.77;;;;;;;21.50;65.16;102325.44;7392131;19;20034;-60
2023/08/16 11:17:01;;;;;;;5.03;1.80;;;;;;;21.54;65.19;102324.16;7389897;19;20015;-60
2023/08/16 11:19:28;;;;;;;7.03;1.80;;;;;;;21.58;64.79;102329.09;7391553;19;20019;-60
2023/08/16 11:22:03;;;;;;;5.07;1.63;;;;;;;21.67;64.52;102321.97;7390549;19;20019;-60
2023/08/16 11:24:31;;;;;;;8.95;1.90;;;;;;;21.59;64.92;102322.69;7391860;19;20022;-60
2023/08/16 11:26:58;;;;;;;7.18;1.70;;;;;;;21.58;64.67;102325.56;7389829;19;20019;-60
2023/08/16 11:29:26;;;;;;;4.03;1.50;;;;;;;21.60;65.36;102335.22;7389383;19;20018;-59
2023/08/16 11:31:57;;;;;;;7.32;2.00;;;;;;;21.73;64.57;102331.31;7390231;19;20018;-59
2023/08/16 11:34:25;;;;;;;5.63;2.20;;;;;;;21.78;64.17;102337.13;7391311;19;20019;-59